Gunpowder, Maryland
Current Conditions -  °F | °C
As of 3:12 AM on Thursday 27 Nov 2014 (Local Time) from KMTN Reporting Station
Broken Clouds Broken Clouds  
Wind Chill: 32°   Ceiling: 7000
Heat Index: 36°   Visibility: 10mi
Dew Point: 34°   Wind: 5mph
Humidity: 93%   Direction: 270°W
Pressure: 30.02"   Gusts: NA
Location:  39.37°N, 76.29°W
Report Text: KMTN 270812Z AUTO 27004KT 10SM BKN070 BKN100 02/01 A3002 RMK AO2
Loading
Personal Weather Stations






























Interactive Weather Map New forecast layout! Learn more

10-Day Weather Forecast

Advertisements
Track Severe Weather on mobile